Aviation Digital Data Service (ADDS)

Output produced by METARs form (1621 UTC 22 September 2019)
found at http://www.aviationweather.gov/metar/data/
 
METAR text: GCXO 221600Z 29010KT 260V330 9999 3000NW BCFG FEW002 BKN012 24/20 Q1020 NOSIG
Conditions at: GCXO (TENERIFE/LOS ROD, ES) observed 1600 UTC 22 September 2019
Temperature: 24.0°C (75°F)
Dewpoint: 20.0°C (68°F) [RH = 78%]
Pressure (altimeter): 30.12 inches Hg (1020.0 mb)
Winds: from the WNW (290 degrees) at 12 MPH (10 knots; 5.1 m/s)
Visibility: 6 or more miles (10+ km)
Ceiling: 1200 feet AGL
Clouds: few clouds at 200 feet AGL
broken clouds at 1200 feet AGL
Weather: BCFG  (patches of fog)

METAR text: GCXO 221530Z 31010KT 280V340 9999 2000NW BCFG FEW002 BKN010 24/20 Q1020 NOSIG
Conditions at: GCXO (TENERIFE/LOS ROD, ES) observed 1530 UTC 22 September 2019
Temperature: 24.0°C (75°F)
Dewpoint: 20.0°C (68°F) [RH = 78%]
Pressure (altimeter): 30.12 inches Hg (1020.0 mb)
Winds: from the NW (310 degrees) at 12 MPH (10 knots; 5.1 m/s)
Visibility: 6 or more miles (10+ km)
Ceiling: 1000 feet AGL
Clouds: few clouds at 200 feet AGL
broken clouds at 1000 feet AGL
Weather: BCFG  (patches of fog)

METAR text: GCXO 221500Z 32010KT 280V340 9999 BCFG FEW002 BKN010 24/20 Q1020 NOSIG
Conditions at: GCXO (TENERIFE/LOS ROD, ES) observed 1500 UTC 22 September 2019
Temperature: 24.0°C (75°F)
Dewpoint: 20.0°C (68°F) [RH = 78%]
Pressure (altimeter): 30.12 inches Hg (1020.0 mb)
Winds: from the NW (320 degrees) at 12 MPH (10 knots; 5.1 m/s)
Visibility: 6 or more miles (10+ km)
Ceiling: 1000 feet AGL
Clouds: few clouds at 200 feet AGL
broken clouds at 1000 feet AGL
Weather: BCFG  (patches of fog)

METAR text: GCXO 221430Z 29011KT 9999 BCFG FEW002 BKN010 23/20 Q1020 NOSIG
Conditions at: GCXO (TENERIFE/LOS ROD, ES) observed 1430 UTC 22 September 2019
Temperature: 23.0°C (73°F)
Dewpoint: 20.0°C (68°F) [RH = 83%]
Pressure (altimeter): 30.12 inches Hg (1020.0 mb)
Winds: from the WNW (290 degrees) at 13 MPH (11 knots; 5.7 m/s)
Visibility: 6 or more miles (10+ km)
Ceiling: 1000 feet AGL
Clouds: few clouds at 200 feet AGL
broken clouds at 1000 feet AGL
Weather: BCFG  (patches of fog)

METAR text: GCXO 221400Z 31010KT 280V360 9999 FEW002 SCT012 23/19 Q1020 NOSIG
Conditions at: GCXO (TENERIFE/LOS ROD, ES) observed 1400 UTC 22 September 2019
Temperature: 23.0°C (73°F)
Dewpoint: 19.0°C (66°F) [RH = 78%]
Pressure (altimeter): 30.12 inches Hg (1020.0 mb)
Winds: from the NW (310 degrees) at 12 MPH (10 knots; 5.1 m/s)
Visibility: 6 or more miles (10+ km)
Ceiling: at least 12,000 feet AGL
Clouds: few clouds at 200 feet AGL
scattered clouds at 1200 feet AGL
Weather: no significant weather observed at this time

METAR text: GCXO 221330Z 30011KT 270V330 9999 FEW006 SCT014 25/19 Q1021 NOSIG
Conditions at: GCXO (TENERIFE/LOS ROD, ES) observed 1330 UTC 22 September 2019
Temperature: 25.0°C (77°F)
Dewpoint: 19.0°C (66°F) [RH = 69%]
Pressure (altimeter): 30.15 inches Hg (1021.0 mb)
Winds: from the WNW (300 degrees) at 13 MPH (11 knots; 5.7 m/s)
Visibility: 6 or more miles (10+ km)
Ceiling: at least 12,000 feet AGL
Clouds: few clouds at 600 feet AGL
scattered clouds at 1400 feet AGL
Weather: no significant weather observed at this time

METAR text: GCXO 221300Z 31011KT 280V010 9999 FEW008 SCT014 25/20 Q1021 NOSIG
Conditions at: GCXO (TENERIFE/LOS ROD, ES) observed 1300 UTC 22 September 2019
Temperature: 25.0°C (77°F)
Dewpoint: 20.0°C (68°F) [RH = 74%]
Pressure (altimeter): 30.15 inches Hg (1021.0 mb)
Winds: from the NW (310 degrees) at 13 MPH (11 knots; 5.7 m/s)
Visibility: 6 or more miles (10+ km)
Ceiling: at least 12,000 feet AGL
Clouds: few clouds at 800 feet AGL
scattered clouds at 1400 feet AGL
Weather: no significant weather observed at this time

METAR text: GCXO 221230Z 32010KT 290V350 9999 FEW010 SCT014 24/19 Q1021 NOSIG
Conditions at: GCXO (TENERIFE/LOS ROD, ES) observed 1230 UTC 22 September 2019
Temperature: 24.0°C (75°F)
Dewpoint: 19.0°C (66°F) [RH = 74%]
Pressure (altimeter): 30.15 inches Hg (1021.0 mb)
Winds: from the NW (320 degrees) at 12 MPH (10 knots; 5.1 m/s)
Visibility: 6 or more miles (10+ km)
Ceiling: at least 12,000 feet AGL
Clouds: few clouds at 1000 feet AGL
scattered clouds at 1400 feet AGL
Weather: no significant weather observed at this time

METAR text: GCXO 221200Z 30010KT 260V010 9999 FEW008 SCT013 25/21 Q1021 NOSIG
Conditions at: GCXO (TENERIFE/LOS ROD, ES) observed 1200 UTC 22 September 2019
Temperature: 25.0°C (77°F)
Dewpoint: 21.0°C (70°F) [RH = 79%]
Pressure (altimeter): 30.15 inches Hg (1021.0 mb)
Winds: from the WNW (300 degrees) at 12 MPH (10 knots; 5.1 m/s)
Visibility: 6 or more miles (10+ km)
Ceiling: at least 12,000 feet AGL
Clouds: few clouds at 800 feet AGL
scattered clouds at 1300 feet AGL
Weather: no significant weather observed at this time

METAR text: GCXO 221130Z 32010KT 280V340 9999 FEW006 SCT010 25/21 Q1021 NOSIG
Conditions at: GCXO (TENERIFE/LOS ROD, ES) observed 1130 UTC 22 September 2019
Temperature: 25.0°C (77°F)
Dewpoint: 21.0°C (70°F) [RH = 79%]
Pressure (altimeter): 30.15 inches Hg (1021.0 mb)
Winds: from the NW (320 degrees) at 12 MPH (10 knots; 5.1 m/s)
Visibility: 6 or more miles (10+ km)
Ceiling: at least 12,000 feet AGL
Clouds: few clouds at 600 feet AGL
scattered clouds at 1000 feet AGL
Weather: no significant weather observed at this time

METAR text: GCXO 221100Z 31012KT 280V340 9999 FEW006 BKN010 23/19 Q1021 NOSIG
Conditions at: GCXO (TENERIFE/LOS ROD, ES) observed 1100 UTC 22 September 2019
Temperature: 23.0°C (73°F)
Dewpoint: 19.0°C (66°F) [RH = 78%]
Pressure (altimeter): 30.15 inches Hg (1021.0 mb)
Winds: from the NW (310 degrees) at 14 MPH (12 knots; 6.2 m/s)
Visibility: 6 or more miles (10+ km)
Ceiling: 1000 feet AGL
Clouds: few clouds at 600 feet AGL
broken clouds at 1000 feet AGL
Weather: no significant weather observed at this time

METAR text: GCXO 221030Z 29010KT 260V320 9999 FEW006 SCT010 22/19 Q1021 NOSIG
Conditions at: GCXO (TENERIFE/LOS ROD, ES) observed 1030 UTC 22 September 2019
Temperature: 22.0°C (72°F)
Dewpoint: 19.0°C (66°F) [RH = 83%]
Pressure (altimeter): 30.15 inches Hg (1021.0 mb)
Winds: from the WNW (290 degrees) at 12 MPH (10 knots; 5.1 m/s)
Visibility: 6 or more miles (10+ km)
Ceiling: at least 12,000 feet AGL
Clouds: few clouds at 600 feet AGL
scattered clouds at 1000 feet AGL
Weather: no significant weather observed at this time

METAR text: GCXO 221000Z 31011KT 280V340 9999 FEW003 SCT008 BKN012 22/19 Q1021 NOSIG
Conditions at: GCXO (TENERIFE/LOS ROD, ES) observed 1000 UTC 22 September 2019
Temperature: 22.0°C (72°F)
Dewpoint: 19.0°C (66°F) [RH = 83%]
Pressure (altimeter): 30.15 inches Hg (1021.0 mb)
Winds: from the NW (310 degrees) at 13 MPH (11 knots; 5.7 m/s)
Visibility: 6 or more miles (10+ km)
Ceiling: 1200 feet AGL
Clouds: few clouds at 300 feet AGL
scattered clouds at 800 feet AGL
broken clouds at 1200 feet AGL
Weather: no significant weather observed at this time

METAR text: GCXO 220930Z 31010KT 9999 FEW006 SCT012 22/18 Q1021 NOSIG
Conditions at: GCXO (TENERIFE/LOS ROD, ES) observed 0930 UTC 22 September 2019
Temperature: 22.0°C (72°F)
Dewpoint: 18.0°C (64°F) [RH = 78%]
Pressure (altimeter): 30.15 inches Hg (1021.0 mb)
Winds: from the NW (310 degrees) at 12 MPH (10 knots; 5.1 m/s)
Visibility: 6 or more miles (10+ km)
Ceiling: at least 12,000 feet AGL
Clouds: few clouds at 600 feet AGL
scattered clouds at 1200 feet AGL
Weather: no significant weather observed at this time

METAR text: GCXO 220900Z 32008KT 9999 FEW018 22/17 Q1021 NOSIG
Conditions at: GCXO (TENERIFE/LOS ROD, ES) observed 0900 UTC 22 September 2019
Temperature: 22.0°C (72°F)
Dewpoint: 17.0°C (63°F) [RH = 73%]
Pressure (altimeter): 30.15 inches Hg (1021.0 mb)
Winds: from the NW (320 degrees) at 9 MPH (8 knots; 4.1 m/s)
Visibility: 6 or more miles (10+ km)
Ceiling: at least 12,000 feet AGL
Clouds: few clouds at 1800 feet AGL
Weather: no significant weather observed at this time

METAR text: GCXO 220830Z 29004KT 260V330 9999 FEW025 22/17 Q1021 NOSIG
Conditions at: GCXO (TENERIFE/LOS ROD, ES) observed 0830 UTC 22 September 2019
Temperature: 22.0°C (72°F)
Dewpoint: 17.0°C (63°F) [RH = 73%]
Pressure (altimeter): 30.15 inches Hg (1021.0 mb)
Winds: from the WNW (290 degrees) at 5 MPH (4 knots; 2.1 m/s)
Visibility: 6 or more miles (10+ km)
Ceiling: at least 12,000 feet AGL
Clouds: few clouds at 2500 feet AGL
Weather: no significant weather observed at this time

METAR text: GCXO 220800Z 29004KT 9999 FEW025 21/17 Q1021 NOSIG
Conditions at: GCXO (TENERIFE/LOS ROD, ES) observed 0800 UTC 22 September 2019
Temperature: 21.0°C (70°F)
Dewpoint: 17.0°C (63°F) [RH = 78%]
Pressure (altimeter): 30.15 inches Hg (1021.0 mb)
Winds: from the WNW (290 degrees) at 5 MPH (4 knots; 2.1 m/s)
Visibility: 6 or more miles (10+ km)
Ceiling: at least 12,000 feet AGL
Clouds: few clouds at 2500 feet AGL
Weather: no significant weather observed at this time

METAR text: GCXO 220730Z 27006KT 220V320 9999 FEW025 19/17 Q1020 NOSIG
Conditions at: GCXO (TENERIFE/LOS ROD, ES) observed 0730 UTC 22 September 2019
Temperature: 19.0°C (66°F)
Dewpoint: 17.0°C (63°F) [RH = 88%]
Pressure (altimeter): 30.12 inches Hg (1020.0 mb)
Winds: from the W (270 degrees) at 7 MPH (6 knots; 3.1 m/s)
Visibility: 6 or more miles (10+ km)
Ceiling: at least 12,000 feet AGL
Clouds: few clouds at 2500 feet AGL
Weather: no significant weather observed at this time

METAR text: GCXO 220700Z 28009KT 9999 FEW023 18/16 Q1020 NOSIG
Conditions at: GCXO (TENERIFE/LOS ROD, ES) observed 0700 UTC 22 September 2019
Temperature: 18.0°C (64°F)
Dewpoint: 16.0°C (61°F) [RH = 88%]
Pressure (altimeter): 30.12 inches Hg (1020.0 mb)
Winds: from the W (280 degrees) at 10 MPH (9 knots; 4.6 m/s)
Visibility: 6 or more miles (10+ km)
Ceiling: at least 12,000 feet AGL
Clouds: few clouds at 2300 feet AGL
Weather: no significant weather observed at this time

METAR text: GCXO 220630Z 29009KT 9999 FEW023 18/15 Q1020 NOSIG
Conditions at: GCXO (TENERIFE/LOS ROD, ES) observed 0630 UTC 22 September 2019
Temperature: 18.0°C (64°F)
Dewpoint: 15.0°C (59°F) [RH = 83%]
Pressure (altimeter): 30.12 inches Hg (1020.0 mb)
Winds: from the WNW (290 degrees) at 10 MPH (9 knots; 4.6 m/s)
Visibility: 6 or more miles (10+ km)
Ceiling: at least 12,000 feet AGL
Clouds: few clouds at 2300 feet AGL
Weather: no significant weather observed at this time

METAR text: GCXO 220600Z 29009KT 9999 SCT020 17/14 Q1020 NOSIG
Conditions at: GCXO (TENERIFE/LOS ROD, ES) observed 0600 UTC 22 September 2019
Temperature: 17.0°C (63°F)
Dewpoint: 14.0°C (57°F) [RH = 82%]
Pressure (altimeter): 30.12 inches Hg (1020.0 mb)
Winds: from the WNW (290 degrees) at 10 MPH (9 knots; 4.6 m/s)
Visibility: 6 or more miles (10+ km)
Ceiling: at least 12,000 feet AGL
Clouds: scattered clouds at 2000 feet AGL
Weather: no significant weather observed at this time

METAR text: GCXO 220530Z 28009KT 9999 3000NW BCFG SCT020 19/16 Q1020 NOSIG
Conditions at: GCXO (TENERIFE/LOS ROD, ES) observed 0530 UTC 22 September 2019
Temperature: 19.0°C (66°F)
Dewpoint: 16.0°C (61°F) [RH = 83%]
Pressure (altimeter): 30.12 inches Hg (1020.0 mb)
Winds: from the W (280 degrees) at 10 MPH (9 knots; 4.6 m/s)
Visibility: 6 or more miles (10+ km)
Ceiling: at least 12,000 feet AGL
Clouds: scattered clouds at 2000 feet AGL
Weather: BCFG  (patches of fog)

METAR text: GCXO 220500Z 28009KT 9999 3000NW BCFG SCT020 18/15 Q1020 NOSIG
Conditions at: GCXO (TENERIFE/LOS ROD, ES) observed 0500 UTC 22 September 2019
Temperature: 18.0°C (64°F)
Dewpoint: 15.0°C (59°F) [RH = 83%]
Pressure (altimeter): 30.12 inches Hg (1020.0 mb)
Winds: from the W (280 degrees) at 10 MPH (9 knots; 4.6 m/s)
Visibility: 6 or more miles (10+ km)
Ceiling: at least 12,000 feet AGL
Clouds: scattered clouds at 2000 feet AGL
Weather: BCFG  (patches of fog)

METAR text: GCXO 220430Z AUTO 28007KT 9999 SCT023 18/15 Q1019
Conditions at: GCXO (TENERIFE/LOS ROD, ES) observed 0430 UTC 22 September 2019
Temperature: 18.0°C (64°F)
Dewpoint: 15.0°C (59°F) [RH = 83%]
Pressure (altimeter): 30.09 inches Hg (1019.0 mb)
Winds: from the W (280 degrees) at 8 MPH (7 knots; 3.6 m/s)
Visibility: 6 or more miles (10+ km)
Ceiling: at least 12,000 feet AGL
Clouds: scattered clouds at 2300 feet AGL
Weather: no significant weather observed at this time

METAR text: GCXO 220400Z AUTO 27008KT 9999 FEW026 18/14 Q1019
Conditions at: GCXO (TENERIFE/LOS ROD, ES) observed 0400 UTC 22 September 2019
Temperature: 18.0°C (64°F)
Dewpoint: 14.0°C (57°F) [RH = 77%]
Pressure (altimeter): 30.09 inches Hg (1019.0 mb)
Winds: from the W (270 degrees) at 9 MPH (8 knots; 4.1 m/s)
Visibility: 6 or more miles (10+ km)
Ceiling: at least 12,000 feet AGL
Clouds: few clouds at 2600 feet AGL
Weather: no significant weather observed at this time

METAR text: GCXO 220330Z AUTO 27008KT 9999 NCD 18/14 Q1019
Conditions at: GCXO (TENERIFE/LOS ROD, ES) observed 0330 UTC 22 September 2019
Temperature: 18.0°C (64°F)
Dewpoint: 14.0°C (57°F) [RH = 77%]
Pressure (altimeter): 30.09 inches Hg (1019.0 mb)
Winds: from the W (270 degrees) at 9 MPH (8 knots; 4.1 m/s)
Visibility: 6 or more miles (10+ km)
Ceiling: at least 12,000 feet AGL
Clouds: sky clear below 12,000 feet AGL
Weather: no significant weather observed at this time

METAR text: GCXO 220300Z AUTO 28008KT 9999 NCD 18/14 Q1019
Conditions at: GCXO (TENERIFE/LOS ROD, ES) observed 0300 UTC 22 September 2019
Temperature: 18.0°C (64°F)
Dewpoint: 14.0°C (57°F) [RH = 77%]
Pressure (altimeter): 30.09 inches Hg (1019.0 mb)
Winds: from the W (280 degrees) at 9 MPH (8 knots; 4.1 m/s)
Visibility: 6 or more miles (10+ km)
Ceiling: at least 12,000 feet AGL
Clouds: sky clear below 12,000 feet AGL
Weather: no significant weather observed at this time

METAR text: GCXO 220230Z AUTO 28006KT 9999 NCD 16/13 Q1020
Conditions at: GCXO (TENERIFE/LOS ROD, ES) observed 0230 UTC 22 September 2019
Temperature: 16.0°C (61°F)
Dewpoint: 13.0°C (55°F) [RH = 82%]
Pressure (altimeter): 30.12 inches Hg (1020.0 mb)
Winds: from the W (280 degrees) at 7 MPH (6 knots; 3.1 m/s)
Visibility: 6 or more miles (10+ km)
Ceiling: at least 12,000 feet AGL
Clouds: sky clear below 12,000 feet AGL
Weather: no significant weather observed at this time

METAR text: GCXO 220200Z AUTO 28008KT 9999 NCD 18/14 Q1019
Conditions at: GCXO (TENERIFE/LOS ROD, ES) observed 0200 UTC 22 September 2019
Temperature: 18.0°C (64°F)
Dewpoint: 14.0°C (57°F) [RH = 77%]
Pressure (altimeter): 30.09 inches Hg (1019.0 mb)
Winds: from the W (280 degrees) at 9 MPH (8 knots; 4.1 m/s)
Visibility: 6 or more miles (10+ km)
Ceiling: at least 12,000 feet AGL
Clouds: sky clear below 12,000 feet AGL
Weather: no significant weather observed at this time

METAR text: GCXO 220130Z AUTO 29007KT 9999 NCD 16/15 Q1020
Conditions at: GCXO (TENERIFE/LOS ROD, ES) observed 0130 UTC 22 September 2019
Temperature: 16.0°C (61°F)
Dewpoint: 15.0°C (59°F) [RH = 94%]
Pressure (altimeter): 30.12 inches Hg (1020.0 mb)
Winds: from the WNW (290 degrees) at 8 MPH (7 knots; 3.6 m/s)
Visibility: 6 or more miles (10+ km)
Ceiling: at least 12,000 feet AGL
Clouds: sky clear below 12,000 feet AGL
Weather: no significant weather observed at this time

METAR text: GCXO 220100Z AUTO 27007KT 9999 NCD 16/16 Q1020
Conditions at: GCXO (TENERIFE/LOS ROD, ES) observed 0100 UTC 22 September 2019
Temperature: 16.0°C (61°F)
Dewpoint: 16.0°C (61°F) [RH = 100%]
Pressure (altimeter): 30.12 inches Hg (1020.0 mb)
Winds: from the W (270 degrees) at 8 MPH (7 knots; 3.6 m/s)
Visibility: 6 or more miles (10+ km)
Ceiling: at least 12,000 feet AGL
Clouds: sky clear below 12,000 feet AGL
Weather: no significant weather observed at this time

METAR text: GCXO 220030Z AUTO 29008KT 4800 1700 BR VV001 18/17 Q1020
Conditions at: GCXO (TENERIFE/LOS ROD, ES) observed 0030 UTC 22 September 2019
Temperature: 18.0°C (64°F)
Dewpoint: 17.0°C (63°F) [RH = 94%]
Pressure (altimeter): 30.12 inches Hg (1020.0 mb)
Winds: from the WNW (290 degrees) at 9 MPH (8 knots; 4.1 m/s)
Visibility: 2.98 miles (4.80 km)
Ceiling: indefinite ceiling with vertical visibility of 100 feet AGL
Clouds: obscured sky
Weather: BR  (mist)

METAR text: GCXO 220000Z AUTO 29009KT 9999 NCD 18/17 Q1020
Conditions at: GCXO (TENERIFE/LOS ROD, ES) observed 0000 UTC 22 September 2019
Temperature: 18.0°C (64°F)
Dewpoint: 17.0°C (63°F) [RH = 94%]
Pressure (altimeter): 30.12 inches Hg (1020.0 mb)
Winds: from the WNW (290 degrees) at 10 MPH (9 knots; 4.6 m/s)
Visibility: 6 or more miles (10+ km)
Ceiling: at least 12,000 feet AGL
Clouds: sky clear below 12,000 feet AGL
Weather: no significant weather observed at this time

METAR text: GCXO 212330Z AUTO 28009KT 9999 SCT002 17/17 Q1020
Conditions at: GCXO (TENERIFE/LOS ROD, ES) observed 2330 UTC 21 September 2019
Temperature: 17.0°C (63°F)
Dewpoint: 17.0°C (63°F) [RH = 100%]
Pressure (altimeter): 30.12 inches Hg (1020.0 mb)
Winds: from the W (280 degrees) at 10 MPH (9 knots; 4.6 m/s)
Visibility: 6 or more miles (10+ km)
Ceiling: at least 12,000 feet AGL
Clouds: scattered clouds at 200 feet AGL
Weather: no significant weather observed at this time

METAR text: GCXO 212300Z AUTO 29009KT 9999 FEW001 18/17 Q1020
Conditions at: GCXO (TENERIFE/LOS ROD, ES) observed 2300 UTC 21 September 2019
Temperature: 18.0°C (64°F)
Dewpoint: 17.0°C (63°F) [RH = 94%]
Pressure (altimeter): 30.12 inches Hg (1020.0 mb)
Winds: from the WNW (290 degrees) at 10 MPH (9 knots; 4.6 m/s)
Visibility: 6 or more miles (10+ km)
Ceiling: at least 12,000 feet AGL
Clouds: few clouds at 100 feet AGL
Weather: no significant weather observed at this time

METAR text: GCXO 212230Z AUTO 28007KT 9000 1300 VV001 18/17 Q1020
Conditions at: GCXO (TENERIFE/LOS ROD, ES) observed 2230 UTC 21 September 2019
Temperature: 18.0°C (64°F)
Dewpoint: 17.0°C (63°F) [RH = 94%]
Pressure (altimeter): 30.12 inches Hg (1020.0 mb)
Winds: from the W (280 degrees) at 8 MPH (7 knots; 3.6 m/s)
Visibility: 6 miles ( 9 km)
Ceiling: indefinite ceiling with vertical visibility of 100 feet AGL
Clouds: obscured sky
Weather: no significant weather observed at this time

METAR text: GCXO 212200Z 30008KT 9999 3000NW BCFG FEW001 18/17 Q1020 NOSIG
Conditions at: GCXO (TENERIFE/LOS ROD, ES) observed 2200 UTC 21 September 2019
Temperature: 18.0°C (64°F)
Dewpoint: 17.0°C (63°F) [RH = 94%]
Pressure (altimeter): 30.12 inches Hg (1020.0 mb)
Winds: from the WNW (300 degrees) at 9 MPH (8 knots; 4.1 m/s)
Visibility: 6 or more miles (10+ km)
Ceiling: at least 12,000 feet AGL
Clouds: few clouds at 100 feet AGL
Weather: BCFG  (patches of fog)

METAR text: GCXO 212130Z 29008KT 9999 3000NW BCFG FEW001 18/17 Q1020 NOSIG
Conditions at: GCXO (TENERIFE/LOS ROD, ES) observed 2130 UTC 21 September 2019
Temperature: 18.0°C (64°F)
Dewpoint: 17.0°C (63°F) [RH = 94%]
Pressure (altimeter): 30.12 inches Hg (1020.0 mb)
Winds: from the WNW (290 degrees) at 9 MPH (8 knots; 4.1 m/s)
Visibility: 6 or more miles (10+ km)
Ceiling: at least 12,000 feet AGL
Clouds: few clouds at 100 feet AGL
Weather: BCFG  (patches of fog)

METAR text: GCXO 212100Z 29010KT 9999 FEW002 18/17 Q1020 NOSIG
Conditions at: GCXO (TENERIFE/LOS ROD, ES) observed 2100 UTC 21 September 2019
Temperature: 18.0°C (64°F)
Dewpoint: 17.0°C (63°F) [RH = 94%]
Pressure (altimeter): 30.12 inches Hg (1020.0 mb)
Winds: from the WNW (290 degrees) at 12 MPH (10 knots; 5.1 m/s)
Visibility: 6 or more miles (10+ km)
Ceiling: at least 12,000 feet AGL
Clouds: few clouds at 200 feet AGL
Weather: no significant weather observed at this time

METAR text: GCXO 212030Z 30010KT 9999 FEW002 19/17 Q1020 NOSIG
Conditions at: GCXO (TENERIFE/LOS ROD, ES) observed 2030 UTC 21 September 2019
Temperature: 19.0°C (66°F)
Dewpoint: 17.0°C (63°F) [RH = 88%]
Pressure (altimeter): 30.12 inches Hg (1020.0 mb)
Winds: from the WNW (300 degrees) at 12 MPH (10 knots; 5.1 m/s)
Visibility: 6 or more miles (10+ km)
Ceiling: at least 12,000 feet AGL
Clouds: few clouds at 200 feet AGL
Weather: no significant weather observed at this time

METAR text: GCXO 212000Z 29010KT 9999 FEW002 19/17 Q1019 NOSIG
Conditions at: GCXO (TENERIFE/LOS ROD, ES) observed 2000 UTC 21 September 2019
Temperature: 19.0°C (66°F)
Dewpoint: 17.0°C (63°F) [RH = 88%]
Pressure (altimeter): 30.09 inches Hg (1019.0 mb)
Winds: from the WNW (290 degrees) at 12 MPH (10 knots; 5.1 m/s)
Visibility: 6 or more miles (10+ km)
Ceiling: at least 12,000 feet AGL
Clouds: few clouds at 200 feet AGL
Weather: no significant weather observed at this time

METAR text: GCXO 211930Z 30013KT 9999 FEW003 SCT008 19/17 Q1019 NOSIG
Conditions at: GCXO (TENERIFE/LOS ROD, ES) observed 1930 UTC 21 September 2019
Temperature: 19.0°C (66°F)
Dewpoint: 17.0°C (63°F) [RH = 88%]
Pressure (altimeter): 30.09 inches Hg (1019.0 mb)
Winds: from the WNW (300 degrees) at 15 MPH (13 knots; 6.7 m/s)
Visibility: 6 or more miles (10+ km)
Ceiling: at least 12,000 feet AGL
Clouds: few clouds at 300 feet AGL
scattered clouds at 800 feet AGL
Weather: no significant weather observed at this time

METAR text: GCXO 211900Z 30012KT 9999 FEW004 SCT009 19/17 Q1019 NOSIG
Conditions at: GCXO (TENERIFE/LOS ROD, ES) observed 1900 UTC 21 September 2019
Temperature: 19.0°C (66°F)
Dewpoint: 17.0°C (63°F) [RH = 88%]
Pressure (altimeter): 30.09 inches Hg (1019.0 mb)
Winds: from the WNW (300 degrees) at 14 MPH (12 knots; 6.2 m/s)
Visibility: 6 or more miles (10+ km)
Ceiling: at least 12,000 feet AGL
Clouds: few clouds at 400 feet AGL
scattered clouds at 900 feet AGL
Weather: no significant weather observed at this time

METAR text: GCXO 211830Z 31009KT 9999 FEW009 20/16 Q1019 NOSIG
Conditions at: GCXO (TENERIFE/LOS ROD, ES) observed 1830 UTC 21 September 2019
Temperature: 20.0°C (68°F)
Dewpoint: 16.0°C (61°F) [RH = 78%]
Pressure (altimeter): 30.09 inches Hg (1019.0 mb)
Winds: from the NW (310 degrees) at 10 MPH (9 knots; 4.6 m/s)
Visibility: 6 or more miles (10+ km)
Ceiling: at least 12,000 feet AGL
Clouds: few clouds at 900 feet AGL
Weather: no significant weather observed at this time

METAR text: GCXO 211800Z 31010KT 270V340 9999 FEW011 21/17 Q1019 NOSIG
Conditions at: GCXO (TENERIFE/LOS ROD, ES) observed 1800 UTC 21 September 2019
Temperature: 21.0°C (70°F)
Dewpoint: 17.0°C (63°F) [RH = 78%]
Pressure (altimeter): 30.09 inches Hg (1019.0 mb)
Winds: from the NW (310 degrees) at 12 MPH (10 knots; 5.1 m/s)
Visibility: 6 or more miles (10+ km)
Ceiling: at least 12,000 feet AGL
Clouds: few clouds at 1100 feet AGL
Weather: no significant weather observed at this time

METAR text: GCXO 211730Z 31008KT 270V360 9999 FEW011 22/18 Q1019 NOSIG
Conditions at: GCXO (TENERIFE/LOS ROD, ES) observed 1730 UTC 21 September 2019
Temperature: 22.0°C (72°F)
Dewpoint: 18.0°C (64°F) [RH = 78%]
Pressure (altimeter): 30.09 inches Hg (1019.0 mb)
Winds: from the NW (310 degrees) at 9 MPH (8 knots; 4.1 m/s)
Visibility: 6 or more miles (10+ km)
Ceiling: at least 12,000 feet AGL
Clouds: few clouds at 1100 feet AGL
Weather: no significant weather observed at this time

METAR text: GCXO 211700Z 30008KT 270V340 9999 FEW010 22/17 Q1019 NOSIG
Conditions at: GCXO (TENERIFE/LOS ROD, ES) observed 1700 UTC 21 September 2019
Temperature: 22.0°C (72°F)
Dewpoint: 17.0°C (63°F) [RH = 73%]
Pressure (altimeter): 30.09 inches Hg (1019.0 mb)
Winds: from the WNW (300 degrees) at 9 MPH (8 knots; 4.1 m/s)
Visibility: 6 or more miles (10+ km)
Ceiling: at least 12,000 feet AGL
Clouds: few clouds at 1000 feet AGL
Weather: no significant weather observed at this time

METAR text: GCXO 211630Z 31008KT 250V340 9999 FEW012 23/17 Q1019 NOSIG
Conditions at: GCXO (TENERIFE/LOS ROD, ES) observed 1630 UTC 21 September 2019
Temperature: 23.0°C (73°F)
Dewpoint: 17.0°C (63°F) [RH = 69%]
Pressure (altimeter): 30.09 inches Hg (1019.0 mb)
Winds: from the NW (310 degrees) at 9 MPH (8 knots; 4.1 m/s)
Visibility: 6 or more miles (10+ km)
Ceiling: at least 12,000 feet AGL
Clouds: few clouds at 1200 feet AGL
Weather: no significant weather observed at this time

METAR text: GCXO 211600Z 31009KT 260V340 9999 FEW012 23/17 Q1018 NOSIG
Conditions at: GCXO (TENERIFE/LOS ROD, ES) observed 1600 UTC 21 September 2019
Temperature: 23.0°C (73°F)
Dewpoint: 17.0°C (63°F) [RH = 69%]
Pressure (altimeter): 30.06 inches Hg (1018.0 mb)
Winds: from the NW (310 degrees) at 10 MPH (9 knots; 4.6 m/s)
Visibility: 6 or more miles (10+ km)
Ceiling: at least 12,000 feet AGL
Clouds: few clouds at 1200 feet AGL
Weather: no significant weather observed at this time

METAR text: GCXO 211530Z 29008KT 250V330 9999 FEW013 24/17 Q1019 NOSIG
Conditions at: GCXO (TENERIFE/LOS ROD, ES) observed 1530 UTC 21 September 2019
Temperature: 24.0°C (75°F)
Dewpoint: 17.0°C (63°F) [RH = 65%]
Pressure (altimeter): 30.09 inches Hg (1019.0 mb)
Winds: from the WNW (290 degrees) at 9 MPH (8 knots; 4.1 m/s)
Visibility: 6 or more miles (10+ km)
Ceiling: at least 12,000 feet AGL
Clouds: few clouds at 1300 feet AGL
Weather: no significant weather observed at this time

METAR text: GCXO 211500Z 30010KT 250V350 9999 FEW012 23/16 Q1019 NOSIG
Conditions at: GCXO (TENERIFE/LOS ROD, ES) observed 1500 UTC 21 September 2019
Temperature: 23.0°C (73°F)
Dewpoint: 16.0°C (61°F) [RH = 65%]
Pressure (altimeter): 30.09 inches Hg (1019.0 mb)
Winds: from the WNW (300 degrees) at 12 MPH (10 knots; 5.1 m/s)
Visibility: 6 or more miles (10+ km)
Ceiling: at least 12,000 feet AGL
Clouds: few clouds at 1200 feet AGL
Weather: no significant weather observed at this time

METAR text: GCXO 211430Z 31008KT 260V350 9999 FEW012 24/16 Q1019 NOSIG
Conditions at: GCXO (TENERIFE/LOS ROD, ES) observed 1430 UTC 21 September 2019
Temperature: 24.0°C (75°F)
Dewpoint: 16.0°C (61°F) [RH = 61%]
Pressure (altimeter): 30.09 inches Hg (1019.0 mb)
Winds: from the NW (310 degrees) at 9 MPH (8 knots; 4.1 m/s)
Visibility: 6 or more miles (10+ km)
Ceiling: at least 12,000 feet AGL
Clouds: few clouds at 1200 feet AGL
Weather: no significant weather observed at this time

METAR text: GCXO 211400Z 31008KT 270V360 9999 FEW010 23/16 Q1019 NOSIG
Conditions at: GCXO (TENERIFE/LOS ROD, ES) observed 1400 UTC 21 September 2019
Temperature: 23.0°C (73°F)
Dewpoint: 16.0°C (61°F) [RH = 65%]
Pressure (altimeter): 30.09 inches Hg (1019.0 mb)
Winds: from the NW (310 degrees) at 9 MPH (8 knots; 4.1 m/s)
Visibility: 6 or more miles (10+ km)
Ceiling: at least 12,000 feet AGL
Clouds: few clouds at 1000 feet AGL
Weather: no significant weather observed at this time

METAR text: GCXO 211330Z 33011KT 290V010 9999 FEW008 23/16 Q1019 NOSIG
Conditions at: GCXO (TENERIFE/LOS ROD, ES) observed 1330 UTC 21 September 2019
Temperature: 23.0°C (73°F)
Dewpoint: 16.0°C (61°F) [RH = 65%]
Pressure (altimeter): 30.09 inches Hg (1019.0 mb)
Winds: from the NNW (330 degrees) at 13 MPH (11 knots; 5.7 m/s)
Visibility: 6 or more miles (10+ km)
Ceiling: at least 12,000 feet AGL
Clouds: few clouds at 800 feet AGL
Weather: no significant weather observed at this time

METAR text: GCXO 211300Z 33011KT 290V020 9999 FEW010 24/15 Q1019 NOSIG
Conditions at: GCXO (TENERIFE/LOS ROD, ES) observed 1300 UTC 21 September 2019
Temperature: 24.0°C (75°F)
Dewpoint: 15.0°C (59°F) [RH = 57%]
Pressure (altimeter): 30.09 inches Hg (1019.0 mb)
Winds: from the NNW (330 degrees) at 13 MPH (11 knots; 5.7 m/s)
Visibility: 6 or more miles (10+ km)
Ceiling: at least 12,000 feet AGL
Clouds: few clouds at 1000 feet AGL
Weather: no significant weather observed at this time

METAR text: GCXO 211230Z 34011KT 300V010 9999 FEW010 23/16 Q1019 NOSIG
Conditions at: GCXO (TENERIFE/LOS ROD, ES) observed 1230 UTC 21 September 2019
Temperature: 23.0°C (73°F)
Dewpoint: 16.0°C (61°F) [RH = 65%]
Pressure (altimeter): 30.09 inches Hg (1019.0 mb)
Winds: from the NNW (340 degrees) at 13 MPH (11 knots; 5.7 m/s)
Visibility: 6 or more miles (10+ km)
Ceiling: at least 12,000 feet AGL
Clouds: few clouds at 1000 feet AGL
Weather: no significant weather observed at this time

METAR text: GCXO 211200Z 32009KT 270V020 9999 FEW013 24/14 Q1020 NOSIG
Conditions at: GCXO (TENERIFE/LOS ROD, ES) observed 1200 UTC 21 September 2019
Temperature: 24.0°C (75°F)
Dewpoint: 14.0°C (57°F) [RH = 54%]
Pressure (altimeter): 30.12 inches Hg (1020.0 mb)
Winds: from the NW (320 degrees) at 10 MPH (9 knots; 4.6 m/s)
Visibility: 6 or more miles (10+ km)
Ceiling: at least 12,000 feet AGL
Clouds: few clouds at 1300 feet AGL
Weather: no significant weather observed at this time

METAR text: GCXO 211130Z 31008KT 280V350 9999 FEW013 24/14 Q1020 NOSIG
Conditions at: GCXO (TENERIFE/LOS ROD, ES) observed 1130 UTC 21 September 2019
Temperature: 24.0°C (75°F)
Dewpoint: 14.0°C (57°F) [RH = 54%]
Pressure (altimeter): 30.12 inches Hg (1020.0 mb)
Winds: from the NW (310 degrees) at 9 MPH (8 knots; 4.1 m/s)
Visibility: 6 or more miles (10+ km)
Ceiling: at least 12,000 feet AGL
Clouds: few clouds at 1300 feet AGL
Weather: no significant weather observed at this time

METAR text: GCXO 211100Z 31008KT 260V360 9999 FEW013 23/16 Q1020 NOSIG
Conditions at: GCXO (TENERIFE/LOS ROD, ES) observed 1100 UTC 21 September 2019
Temperature: 23.0°C (73°F)
Dewpoint: 16.0°C (61°F) [RH = 65%]
Pressure (altimeter): 30.12 inches Hg (1020.0 mb)
Winds: from the NW (310 degrees) at 9 MPH (8 knots; 4.1 m/s)
Visibility: 6 or more miles (10+ km)
Ceiling: at least 12,000 feet AGL
Clouds: few clouds at 1300 feet AGL
Weather: no significant weather observed at this time

METAR text: GCXO 211030Z 32010KT 290V360 9999 FEW012 23/16 Q1020 NOSIG
Conditions at: GCXO (TENERIFE/LOS ROD, ES) observed 1030 UTC 21 September 2019
Temperature: 23.0°C (73°F)
Dewpoint: 16.0°C (61°F) [RH = 65%]
Pressure (altimeter): 30.12 inches Hg (1020.0 mb)
Winds: from the NW (320 degrees) at 12 MPH (10 knots; 5.1 m/s)
Visibility: 6 or more miles (10+ km)
Ceiling: at least 12,000 feet AGL
Clouds: few clouds at 1200 feet AGL
Weather: no significant weather observed at this time

METAR text: GCXO 211000Z 30009KT 9999 FEW012 22/15 Q1020 NOSIG
Conditions at: GCXO (TENERIFE/LOS ROD, ES) observed 1000 UTC 21 September 2019
Temperature: 22.0°C (72°F)
Dewpoint: 15.0°C (59°F) [RH = 65%]
Pressure (altimeter): 30.12 inches Hg (1020.0 mb)
Winds: from the WNW (300 degrees) at 10 MPH (9 knots; 4.6 m/s)
Visibility: 6 or more miles (10+ km)
Ceiling: at least 12,000 feet AGL
Clouds: few clouds at 1200 feet AGL
Weather: no significant weather observed at this time

METAR text: GCXO 210930Z 30009KT CAVOK 21/15 Q1019 NOSIG
Conditions at: GCXO (TENERIFE/LOS ROD, ES) observed 0930 UTC 21 September 2019
Temperature: 21.0°C (70°F)
Dewpoint: 15.0°C (59°F) [RH = 69%]
Pressure (altimeter): 30.09 inches Hg (1019.0 mb)
Winds: from the WNW (300 degrees) at 10 MPH (9 knots; 4.6 m/s)
Visibility: 6 or more miles (10+ km)
Ceiling: ceiling and visibility are OK
Clouds: unknown
Weather: no significant weather observed at this time

METAR text: GCXO 210900Z 30009KT 9999 FEW012 20/15 Q1019 NOSIG
Conditions at: GCXO (TENERIFE/LOS ROD, ES) observed 0900 UTC 21 September 2019
Temperature: 20.0°C (68°F)
Dewpoint: 15.0°C (59°F) [RH = 73%]
Pressure (altimeter): 30.09 inches Hg (1019.0 mb)
Winds: from the WNW (300 degrees) at 10 MPH (9 knots; 4.6 m/s)
Visibility: 6 or more miles (10+ km)
Ceiling: at least 12,000 feet AGL
Clouds: few clouds at 1200 feet AGL
Weather: no significant weather observed at this time

METAR text: GCXO 210830Z 30009KT 9999 FEW013 19/16 Q1019 NOSIG
Conditions at: GCXO (TENERIFE/LOS ROD, ES) observed 0830 UTC 21 September 2019
Temperature: 19.0°C (66°F)
Dewpoint: 16.0°C (61°F) [RH = 83%]
Pressure (altimeter): 30.09 inches Hg (1019.0 mb)
Winds: from the WNW (300 degrees) at 10 MPH (9 knots; 4.6 m/s)
Visibility: 6 or more miles (10+ km)
Ceiling: at least 12,000 feet AGL
Clouds: few clouds at 1300 feet AGL
Weather: no significant weather observed at this time

METAR text: GCXO 210800Z 28010KT 9999 FEW012 18/16 Q1019 NOSIG
Conditions at: GCXO (TENERIFE/LOS ROD, ES) observed 0800 UTC 21 September 2019
Temperature: 18.0°C (64°F)
Dewpoint: 16.0°C (61°F) [RH = 88%]
Pressure (altimeter): 30.09 inches Hg (1019.0 mb)
Winds: from the W (280 degrees) at 12 MPH (10 knots; 5.1 m/s)
Visibility: 6 or more miles (10+ km)
Ceiling: at least 12,000 feet AGL
Clouds: few clouds at 1200 feet AGL
Weather: no significant weather observed at this time

METAR text: GCXO 210730Z 28010KT CAVOK 16/14 Q1018 NOSIG
Conditions at: GCXO (TENERIFE/LOS ROD, ES) observed 0730 UTC 21 September 2019
Temperature: 16.0°C (61°F)
Dewpoint: 14.0°C (57°F) [RH = 88%]
Pressure (altimeter): 30.06 inches Hg (1018.0 mb)
Winds: from the W (280 degrees) at 12 MPH (10 knots; 5.1 m/s)
Visibility: 6 or more miles (10+ km)
Ceiling: ceiling and visibility are OK
Clouds: unknown
Weather: no significant weather observed at this time

METAR text: GCXO 210700Z 28008KT CAVOK 14/12 Q1018 NOSIG
Conditions at: GCXO (TENERIFE/LOS ROD, ES) observed 0700 UTC 21 September 2019
Temperature: 14.0°C (57°F)
Dewpoint: 12.0°C (54°F) [RH = 88%]
Pressure (altimeter): 30.06 inches Hg (1018.0 mb)
Winds: from the W (280 degrees) at 9 MPH (8 knots; 4.1 m/s)
Visibility: 6 or more miles (10+ km)
Ceiling: ceiling and visibility are OK
Clouds: unknown
Weather: no significant weather observed at this time

METAR text: GCXO 210630Z 26003KT 230V290 CAVOK 17/15 Q1018 NOSIG
Conditions at: GCXO (TENERIFE/LOS ROD, ES) observed 0630 UTC 21 September 2019
Temperature: 17.0°C (63°F)
Dewpoint: 15.0°C (59°F) [RH = 88%]
Pressure (altimeter): 30.06 inches Hg (1018.0 mb)
Winds: from the W (260 degrees) at 3 MPH (3 knots; 1.5 m/s)
Visibility: 6 or more miles (10+ km)
Ceiling: ceiling and visibility are OK
Clouds: unknown
Weather: no significant weather observed at this time

METAR text: GCXO 210600Z 27004KT CAVOK 16/14 Q1018 NOSIG
Conditions at: GCXO (TENERIFE/LOS ROD, ES) observed 0600 UTC 21 September 2019
Temperature: 16.0°C (61°F)
Dewpoint: 14.0°C (57°F) [RH = 88%]
Pressure (altimeter): 30.06 inches Hg (1018.0 mb)
Winds: from the W (270 degrees) at 5 MPH (4 knots; 2.1 m/s)
Visibility: 6 or more miles (10+ km)
Ceiling: ceiling and visibility are OK
Clouds: unknown
Weather: no significant weather observed at this time

METAR text: GCXO 210530Z 27007KT CAVOK 16/15 Q1018 NOSIG
Conditions at: GCXO (TENERIFE/LOS ROD, ES) observed 0530 UTC 21 September 2019
Temperature: 16.0°C (61°F)
Dewpoint: 15.0°C (59°F) [RH = 94%]
Pressure (altimeter): 30.06 inches Hg (1018.0 mb)
Winds: from the W (270 degrees) at 8 MPH (7 knots; 3.6 m/s)
Visibility: 6 or more miles (10+ km)
Ceiling: ceiling and visibility are OK
Clouds: unknown
Weather: no significant weather observed at this time

METAR text: GCXO 210500Z 27006KT CAVOK 16/15 Q1018 NOSIG
Conditions at: GCXO (TENERIFE/LOS ROD, ES) observed 0500 UTC 21 September 2019
Temperature: 16.0°C (61°F)
Dewpoint: 15.0°C (59°F) [RH = 94%]
Pressure (altimeter): 30.06 inches Hg (1018.0 mb)
Winds: from the W (270 degrees) at 7 MPH (6 knots; 3.1 m/s)
Visibility: 6 or more miles (10+ km)
Ceiling: ceiling and visibility are OK
Clouds: unknown
Weather: no significant weather observed at this time

METAR text: GCXO 210430Z AUTO 28006KT 240V300 9999 NCD 16/15 Q1017
Conditions at: GCXO (TENERIFE/LOS ROD, ES) observed 0430 UTC 21 September 2019
Temperature: 16.0°C (61°F)
Dewpoint: 15.0°C (59°F) [RH = 94%]
Pressure (altimeter): 30.03 inches Hg (1017.0 mb)
Winds: from the W (280 degrees) at 7 MPH (6 knots; 3.1 m/s)
Visibility: 6 or more miles (10+ km)
Ceiling: at least 12,000 feet AGL
Clouds: sky clear below 12,000 feet AGL
Weather: no significant weather observed at this time

Forecast for: GCXO (TENERIFE/LOS ROD, ES)
Text: TAF GCXO 221400Z 2215/2315 31010KT 9999 SCT013 TX26/2215Z TN17/2305Z
Forecast period: 1500 to 1600 UTC 22 September 2019
Forecast type: FROM: standard forecast or significant change
Winds: from the NW (310 degrees) at 12 MPH (10 knots; 5.1 m/s)
Visibility: 6 or more miles 10+ km)
Ceiling: at least 12,000 feet AGL
Clouds: scattered clouds at 1300 feet AGL
Weather: no significant weather forecast for this period
Text: BECMG 2216/2219 BKN012
Forecast period: 1600 UTC 22 September 2019 to 1500 UTC 23 September 2019
Forecast type: BECOMING: Conditions expected to become as follows by 1900 UTC 22 September 2019
Winds: from the NW (310 degrees) at 12 MPH (10 knots; 5.1 m/s)
Visibility: 6 or more miles 10+ km)
Ceiling: 1200 feet AGL
Clouds: broken clouds at 1200 feet AGL
Weather: no significant weather forecast for this period
Text: PROB40
Forecast period: 1700 UTC 22 September 2019 to 0900 UTC 23 September 2019
Forecast type: TEMPORARY: The following changes expected for less than half the time period
Visibility: 1.55 miles (2.49 km)
Ceiling: 500 feet AGL
Clouds: broken clouds at 500 feet AGL
Weather: RA DZ BCFG  (moderate rain, moderate drizzle, patches of fog)